Time,TemperatureF,DewpointF,PressureIn,WindDirection,WindDirectionDegrees,WindSpeedMPH,WindSpeedGustMPH,Humidity,HourlyPrecipIn,Conditions,Clouds,dailyrainin,SolarRadiationWatts/m^2,SoftwareType,DateUTC
2013-07-03 00:24:00,50.0,46.0,-100.00,NW,304,0.0,0.0,87,0.00,,,0.00,2.000000,,2013-07-03 08:24:00,
2013-07-03 00:35:00,50.0,46.0,-100.00,NW,304,0.0,0.0,87,0.00,,,0.00,2.000000,,2013-07-03 08:35:00,
2013-07-03 00:43:00,50.0,46.0,-100.00,NW,304,0.0,0.0,87,0.00,,,0.00,2.000000,,2013-07-03 08:43:00,
2013-07-03 00:53:00,50.0,46.0,-100.00,NW,304,0.0,0.0,87,0.00,,,0.00,2.000000,,2013-07-03 08:53:00,
2013-07-03 01:24:00,49.0,45.0,-100.00,North,356,0.0,2.0,87,0.00,,,0.00,0.000000,,2013-07-03 09:24:00,
2013-07-03 01:35:00,49.0,45.0,-100.00,North,356,0.0,2.0,87,0.00,,,0.00,0.000000,,2013-07-03 09:35:00,
2013-07-03 01:44:00,49.0,45.0,-100.00,North,356,0.0,2.0,87,0.00,,,0.00,0.000000,,2013-07-03 09:44:00,
2013-07-03 01:53:00,49.0,45.0,-100.00,North,356,0.0,2.0,87,0.00,,,0.00,0.000000,,2013-07-03 09:53:00,
2013-07-03 02:25:00,49.0,45.0,-100.00,North,1,0.0,2.0,86,0.00,,,0.00,0.000000,,2013-07-03 10:25:00,
2013-07-03 02:35:00,49.0,45.0,-100.00,North,1,0.0,2.0,86,0.00,,,0.00,0.000000,,2013-07-03 10:35:00,
2013-07-03 02:43:00,49.0,45.0,-100.00,North,1,0.0,2.0,86,0.00,,,0.00,0.000000,,2013-07-03 10:43:00,
2013-07-03 03:23:00,48.0,45.0,-100.00,NNW,345,0.0,3.0,89,0.00,,,0.00,0.000000,,2013-07-03 11:23:00,
2013-07-03 03:42:00,48.0,45.0,-100.00,NNW,345,0.0,3.0,89,0.00,,,0.00,0.000000,,2013-07-03 11:42:00,
2013-07-03 03:53:00,48.0,45.0,-100.00,NNW,345,0.0,3.0,89,0.00,,,0.00,0.000000,,2013-07-03 11:53:00,
2013-07-03 03:54:00,47.0,44.0,-100.00,South,181,0.0,3.0,90,0.00,,,0.00,0.000000,,2013-07-03 11:54:00,
2013-07-03 04:22:00,47.0,44.0,-100.00,South,181,0.0,3.0,90,0.00,,,0.00,0.000000,,2013-07-03 12:22:00,
2013-07-03 04:35:00,47.0,44.0,-100.00,South,181,0.0,3.0,90,0.00,,,0.00,0.000000,,2013-07-03 12:35:00,
2013-07-03 04:43:00,47.0,44.0,-100.00,South,181,0.0,3.0,90,0.00,,,0.00,0.000000,,2013-07-03 12:43:00,
2013-07-03 05:24:00,46.0,44.0,-100.00,NNW,340,0.0,1.0,93,0.00,,,-99.99,0.000000,,2013-07-03 13:24:00,
2013-07-03 05:35:00,46.0,44.0,-100.00,NNW,340,0.0,1.0,93,0.00,,,-99.99,0.000000,,2013-07-03 13:35:00,
2013-07-03 05:45:00,46.0,44.0,-100.00,NNW,340,0.0,1.0,93,0.00,,,-99.99,0.000000,,2013-07-03 13:45:00,
2013-07-03 05:53:00,46.0,44.0,-100.00,NNW,340,0.0,1.0,93,0.00,,,-99.99,0.000000,,2013-07-03 13:53:00,
2013-07-03 06:24:00,46.0,45.0,-100.00,NNE,15,0.0,2.0,95,0.00,,,0.00,9.000000,,2013-07-03 14:24:00,
2013-07-03 06:34:00,46.0,45.0,-100.00,NNE,15,0.0,2.0,95,0.00,,,0.00,9.000000,,2013-07-03 14:34:00,
2013-07-03 06:44:00,46.0,45.0,-100.00,NNE,15,0.0,2.0,95,0.00,,,0.00,9.000000,,2013-07-03 14:44:00,
2013-07-03 06:53:00,46.0,45.0,-100.00,NNE,15,0.0,2.0,95,0.00,,,0.00,9.000000,,2013-07-03 14:53:00,
2013-07-03 07:24:00,46.0,44.0,-100.00,SW,225,0.0,2.0,94,0.00,,,0.00,27.000000,,2013-07-03 15:24:00,
2013-07-03 07:36:00,46.0,44.0,-100.00,SW,225,0.0,2.0,94,0.00,,,0.00,27.000000,,2013-07-03 15:36:00,
2013-07-03 07:45:00,46.0,44.0,-100.00,SW,225,0.0,2.0,94,0.00,,,0.00,27.000000,,2013-07-03 15:45:00,
2013-07-03 07:53:00,46.0,44.0,-100.00,SW,225,0.0,2.0,94,0.00,,,0.00,27.000000,,2013-07-03 15:53:00,
2013-07-03 07:54:00,48.0,46.0,-100.00,SSW,203,0.0,1.0,93,0.00,,,0.00,62.000000,,2013-07-03 15:54:00,
2013-07-03 08:23:00,48.0,46.0,-100.00,SSW,203,0.0,1.0,93,0.00,,,0.00,62.000000,,2013-07-03 16:23:00,
2013-07-03 08:34:00,48.0,46.0,-100.00,SSW,203,0.0,1.0,93,0.00,,,0.00,62.000000,,2013-07-03 16:34:00,
2013-07-03 08:44:00,48.0,46.0,-100.00,SSW,203,0.0,1.0,93,0.00,,,0.00,62.000000,,2013-07-03 16:44:00,
2013-07-03 09:14:00,49.0,46.0,-100.00,SSE,161,0.0,2.0,91,0.00,,,0.00,76.000000,,2013-07-03 17:14:00,
2013-07-03 09:24:00,49.0,46.0,-100.00,SSE,161,0.0,2.0,91,0.00,,,0.00,76.000000,,2013-07-03 17:24:00,
2013-07-03 09:36:00,49.0,46.0,-100.00,SSE,161,0.0,2.0,91,0.00,,,0.00,76.000000,,2013-07-03 17:36:00,
2013-07-03 09:46:00,49.0,46.0,-100.00,SSE,161,0.0,2.0,91,0.00,,,0.00,76.000000,,2013-07-03 17:46:00,
2013-07-03 09:52:00,49.0,46.0,-100.00,SSE,161,0.0,2.0,91,0.00,,,0.00,76.000000,,2013-07-03 17:52:00,
2013-07-03 09:54:00,51.0,48.0,-100.00,SW,226,0.0,3.0,90,0.00,,,0.00,114.000000,,2013-07-03 17:54:00,
2013-07-03 10:23:00,51.0,48.0,-100.00,SW,226,0.0,3.0,90,0.00,,,0.00,114.000000,,2013-07-03 18:23:00,
2013-07-03 10:35:00,51.0,48.0,-100.00,SW,226,0.0,3.0,90,0.00,,,0.00,114.000000,,2013-07-03 18:35:00,
2013-07-03 10:44:00,51.0,48.0,-100.00,SW,226,0.0,3.0,90,0.00,,,0.00,114.000000,,2013-07-03 18:44:00,
2013-07-03 10:54:00,56.0,48.0,-100.00,East,95,1.0,5.0,75,0.00,,,0.00,260.000000,,2013-07-03 18:54:00,
2013-07-03 11:26:00,56.0,48.0,-100.00,East,95,1.0,5.0,75,0.00,,,0.00,260.000000,,2013-07-03 19:26:00,
2013-07-03 11:34:00,56.0,48.0,-100.00,East,95,1.0,5.0,75,0.00,,,0.00,260.000000,,2013-07-03 19:34:00,
2013-07-03 11:44:00,56.0,48.0,-100.00,East,95,1.0,5.0,75,0.00,,,0.00,260.000000,,2013-07-03 19:44:00,
2013-07-03 12:23:00,58.0,46.0,-100.00,SE,129,1.0,5.0,64,0.00,,,0.00,311.000000,,2013-07-03 20:23:00,
2013-07-03 12:36:00,58.0,46.0,-100.00,SE,129,1.0,5.0,64,0.00,,,0.00,311.000000,,2013-07-03 20:36:00,
2013-07-03 12:43:00,58.0,46.0,-100.00,SE,129,1.0,5.0,64,0.00,,,0.00,311.000000,,2013-07-03 20:43:00,
2013-07-03 12:53:00,58.0,46.0,-100.00,SE,129,1.0,5.0,64,0.00,,,0.00,311.000000,,2013-07-03 20:53:00,
2013-07-03 13:12:00,63.0,48.0,-100.00,ESE,107,1.0,7.0,57,0.00,,,0.00,595.000000,,2013-07-03 21:12:00,
2013-07-03 13:23:00,63.0,48.0,-100.00,ESE,107,1.0,7.0,57,0.00,,,0.00,595.000000,,2013-07-03 21:23:00,
2013-07-03 13:34:00,63.0,48.0,-100.00,ESE,107,1.0,7.0,57,0.00,,,0.00,595.000000,,2013-07-03 21:34:00,
2013-07-03 13:52:00,63.0,48.0,-100.00,ESE,107,1.0,7.0,57,0.00,,,0.00,595.000000,,2013-07-03 21:52:00,
2013-07-03 14:12:00,62.0,44.0,-100.00,SSE,149,2.0,10.0,51,0.00,,,0.00,606.000000,,2013-07-03 22:12:00,
2013-07-03 14:24:00,62.0,44.0,-100.00,SSE,149,2.0,10.0,51,0.00,,,0.00,606.000000,,2013-07-03 22:24:00,
2013-07-03 14:35:00,62.0,44.0,-100.00,SSE,149,2.0,10.0,51,0.00,,,0.00,606.000000,,2013-07-03 22:35:00,
2013-07-03 14:44:00,62.0,44.0,-100.00,SSE,149,2.0,10.0,51,0.00,,,0.00,606.000000,,2013-07-03 22:44:00,
2013-07-03 14:53:00,62.0,44.0,-100.00,SSE,149,2.0,10.0,51,0.00,,,0.00,606.000000,,2013-07-03 22:53:00,
2013-07-03 15:23:00,58.0,43.0,-100.00,SSW,208,1.0,5.0,58,0.00,,,0.00,231.000000,,2013-07-03 23:23:00,
2013-07-03 15:36:00,58.0,43.0,-100.00,SSW,208,1.0,5.0,58,0.00,,,0.00,231.000000,,2013-07-03 23:36:00,
2013-07-03 15:43:00,58.0,43.0,-100.00,SSW,208,1.0,5.0,58,0.00,,,0.00,231.000000,,2013-07-03 23:43:00,
2013-07-03 15:52:00,58.0,43.0,-100.00,SSW,208,1.0,5.0,58,0.00,,,0.00,231.000000,,2013-07-03 23:52:00,
2013-07-03 16:35:00,55.0,48.0,-100.00,West,264,2.0,8.0,77,0.01,,,0.01,139.000000,,2013-07-04 00:35:00,
2013-07-03 16:44:00,55.0,48.0,-100.00,West,264,2.0,8.0,77,0.01,,,0.01,139.000000,,2013-07-04 00:44:00,
2013-07-03 16:53:00,55.0,48.0,-100.00,West,264,2.0,8.0,77,0.01,,,0.01,139.000000,,2013-07-04 00:53:00,
2013-07-03 17:23:00,60.0,52.0,-100.00,SW,228,1.0,5.0,74,0.00,,,0.01,317.000000,,2013-07-04 01:23:00,
2013-07-03 17:34:00,60.0,52.0,-100.00,SW,228,1.0,5.0,74,0.00,,,0.01,317.000000,,2013-07-04 01:34:00,
2013-07-03 17:43:00,60.0,52.0,-100.00,SW,228,1.0,5.0,74,0.00,,,0.01,317.000000,,2013-07-04 01:43:00,
2013-07-03 17:52:00,60.0,52.0,-100.00,SW,228,1.0,5.0,74,0.00,,,0.01,317.000000,,2013-07-04 01:52:00,
2013-07-03 18:22:00,59.0,45.0,-100.00,East,95,2.0,8.0,60,0.00,,,0.01,263.000000,,2013-07-04 02:22:00,
2013-07-03 18:36:00,59.0,45.0,-100.00,East,95,2.0,8.0,60,0.00,,,0.01,263.000000,,2013-07-04 02:36:00,
2013-07-03 18:45:00,59.0,45.0,-100.00,East,95,2.0,8.0,60,0.00,,,0.01,263.000000,,2013-07-04 02:45:00,
2013-07-03 19:26:00,58.0,43.0,-100.00,South,171,1.0,8.0,58,0.00,,,0.01,187.000000,,2013-07-04 03:26:00,
2013-07-03 19:34:00,58.0,43.0,-100.00,South,171,1.0,8.0,58,0.00,,,0.01,187.000000,,2013-07-04 03:34:00,
2013-07-03 19:44:00,58.0,43.0,-100.00,South,171,1.0,8.0,58,0.00,,,0.01,187.000000,,2013-07-04 03:44:00,
2013-07-03 19:53:00,58.0,43.0,-100.00,South,171,1.0,8.0,58,0.00,,,0.01,187.000000,,2013-07-04 03:53:00,
2013-07-03 20:11:00,55.0,47.0,-100.00,West,266,1.0,9.0,73,0.00,,,0.01,144.000000,,2013-07-04 04:11:00,
2013-07-03 20:22:00,55.0,47.0,-100.00,West,266,1.0,9.0,73,0.00,,,0.01,144.000000,,2013-07-04 04:22:00,
2013-07-03 20:33:00,55.0,47.0,-100.00,West,266,1.0,9.0,73,0.00,,,0.01,144.000000,,2013-07-04 04:33:00,
2013-07-03 20:43:00,55.0,47.0,-100.00,West,266,1.0,9.0,73,0.00,,,0.01,144.000000,,2013-07-04 04:43:00,
2013-07-03 20:52:00,55.0,47.0,-100.00,West,266,1.0,9.0,73,0.00,,,0.01,144.000000,,2013-07-04 04:52:00,
2013-07-03 21:12:00,54.0,48.0,-100.00,SSW,195,0.0,4.0,79,0.00,,,0.01,82.000000,,2013-07-04 05:12:00,
2013-07-03 21:22:00,54.0,48.0,-100.00,SSW,195,0.0,4.0,79,0.00,,,0.01,82.000000,,2013-07-04 05:22:00,
2013-07-03 21:32:00,54.0,48.0,-100.00,SSW,195,0.0,4.0,79,0.00,,,0.01,82.000000,,2013-07-04 05:32:00,
2013-07-03 21:43:00,54.0,48.0,-100.00,SSW,195,0.0,4.0,79,0.00,,,0.01,82.000000,,2013-07-04 05:43:00,
2013-07-03 21:52:00,54.0,48.0,-100.00,SSW,195,0.0,4.0,79,0.00,,,0.01,82.000000,,2013-07-04 05:52:00,
2013-07-03 22:22:00,53.0,44.0,-100.00,East,85,1.0,5.0,72,0.00,,,0.01,47.000000,,2013-07-04 06:22:00,
2013-07-03 22:34:00,53.0,44.0,-100.00,East,85,1.0,5.0,72,0.00,,,0.01,47.000000,,2013-07-04 06:34:00,
2013-07-03 22:43:00,53.0,44.0,-100.00,East,85,1.0,5.0,72,0.00,,,0.01,47.000000,,2013-07-04 06:43:00,
2013-07-03 22:52:00,53.0,44.0,-100.00,East,85,1.0,5.0,72,0.00,,,0.01,47.000000,,2013-07-04 06:52:00,
2013-07-03 23:12:00,52.0,43.0,-100.00,East,84,2.0,12.0,70,0.00,,,0.01,15.000000,,2013-07-04 07:12:00,
2013-07-03 23:21:00,52.0,43.0,-100.00,East,84,2.0,12.0,70,0.00,,,0.01,15.000000,,2013-07-04 07:21:00,
2013-07-03 23:34:00,52.0,43.0,-100.00,East,84,2.0,12.0,70,0.00,,,0.01,15.000000,,2013-07-04 07:34:00,
2013-07-03 23:43:00,52.0,43.0,-100.00,East,84,2.0,12.0,70,0.00,,,0.01,15.000000,,2013-07-04 07:43:00,
2013-07-03 23:52:00,52.0,43.0,-100.00,East,84,2.0,12.0,70,0.00,,,0.01,15.000000,,2013-07-04 07:52:00,